Aérodrome :
LOGIN :

S'inscrire | Disclaimer

   EN    FR    IT 

 










Légende :    VFR   VFR Marginal   IFR   IFR Intensif   IFR Très Intensif
Visi : 
Plafond : 
>= 8 km
>= 3000ft
5 à 8 km
1000 à 3000 ft
1500m à 5 km
500 à 1000 ft
800 à 1500m
200 à 500 ft
< 800m
< 200 ft
Symboles :   Orages  Brouillard  Fortes neiges  Fortes précipitations  Vent > 20 kt
SIGMETs :   Divers  Orages  Givrage  Turbulence  Onde Orograph.  Cendres Volcan.






- Altitude de l'aérodrome : 410 ft
- Code IATA : AVB


LIPA - Aviano AB Pordenone

DERNIER METAR :
  • 111755Z 28006KT 9999 TS FEW025CB SCT035 BKN050 21/20 Q1016 RMK BKN VIS MIN 9999 WIND THR05 /////KT WIND THR23 /////KT A3001 BLU

METARs EXPIRÉS :
  • 111655Z 32012KT 3000 -TSRA BR FEW025CB SCT030 BKN050 20/20 Q1017 RMK OVC VIS MIN 1800SW WIND THR05 /////KT WIND THR23 /////KT A3006 YLO
  • 111636Z 34013KT 0500 TSRA FG SCT020CB SCT025 BKN030 20/20 Q1017 RMK OVC VIS MIN 0500 WIND THR05 /////KT WIND THR23 /////KT A3005 RED
  • 111623Z 34011KT 1500 1100SW TSRA BR SCT020CB SCT025 BKN030 24/22 Q1018 RMK OVC VIS MIN 1100SW WIND THR05 /////KT WIND THR23 /////KT A3008 AMB
  • 111608Z 14011KT 9999 -TSRA FEW030CB BKN050 27/23 Q1015 RMK BKN VIS MIN 8000NE WIND THR05 /////KT WIND THR23 /////KT A2998 BLU
  • 111555Z 11017KT 9999 FEW030CB BKN055 30/22 Q1014 RMK BKN VIS MIN 9999 WIND THR05 /////KT WIND THR23 /////KT A2997 BLU

TAF TAF LIPA
Valide du 11 à 18h jusqu'au 12 à 03h UTC


111700Z 1118/1203 03005KT 9999 FEW030 SCT060
TEMPO 1118/1121 3000 TSRA FEW020CB BKN030



MET'MAP, la Météo Aéronautique d'un coup d'oeil ! - Copyright ORBIFLY Décembre 2007 - Disclaimer

ORBIFLY MET'MAP TEAM :

Programmation & Développement : Alexandra Zaïnal
Sur une idée originale de : Baudouin d'Aumeries
Assistance à la programmation : Marc-Olivier Méhu
Soutien technique & logistique : Manuel Goepfert

Contact : metmap@orbifly.com




SOURCES & CREDITS :

   NOAA